createdAt,value
2017-08-18T00:00:20.791Z,18.12
2017-08-18T00:02:48.491Z,18.18
2017-08-18T00:05:16.208Z,18.17
2017-08-18T00:07:43.901Z,18.09
2017-08-18T00:10:11.680Z,18.17
2017-08-18T00:12:40.234Z,18.21
2017-08-18T00:17:55.039Z,18.11
2017-08-18T00:20:22.741Z,18.03
2017-08-18T00:22:50.505Z,18.02
2017-08-18T00:25:18.287Z,18.07
2017-08-18T00:27:45.994Z,18.07
2017-08-18T00:38:00.447Z,17.73
2017-08-18T00:40:28.138Z,17.74
2017-08-18T00:42:55.832Z,17.80
2017-08-18T00:45:23.613Z,17.76
2017-08-18T00:47:51.395Z,17.66
2017-08-18T00:50:19.093Z,17.68
2017-08-18T00:52:46.812Z,17.69
2017-08-18T00:55:14.585Z,17.77
2017-08-18T00:57:42.277Z,17.70
2017-08-18T01:00:09.985Z,17.53
2017-08-18T01:02:37.805Z,17.54
2017-08-18T01:05:05.594Z,17.51
2017-08-18T01:07:33.436Z,17.52
2017-08-18T01:10:01.193Z,17.49
2017-08-18T01:12:28.984Z,17.48
2017-08-18T01:14:56.796Z,17.57
2017-08-18T01:17:24.497Z,17.44
2017-08-18T01:19:52.328Z,17.34
2017-08-18T01:22:20.053Z,17.30
2017-08-18T01:24:47.843Z,17.18
2017-08-18T01:27:15.606Z,17.21
2017-08-18T01:29:43.340Z,17.29
2017-08-18T01:32:11.257Z,17.25
2017-08-18T01:34:39.040Z,17.17
2017-08-18T01:37:06.790Z,17.19
2017-08-18T01:39:34.592Z,17.20
2017-08-18T01:42:02.417Z,17.21
2017-08-18T01:44:30.150Z,17.13
2017-08-18T01:46:57.910Z,17.16
2017-08-18T01:49:25.625Z,17.10
2017-08-18T01:51:53.325Z,17.11
2017-08-18T01:54:21.105Z,17.03
2017-08-18T01:56:48.870Z,16.93
2017-08-18T01:59:16.707Z,16.93
2017-08-18T02:01:44.417Z,16.93
2017-08-18T02:04:12.334Z,16.80
2017-08-18T02:06:40.092Z,16.87
2017-08-18T02:09:07.809Z,16.86
2017-08-18T02:11:35.614Z,16.80
2017-08-18T02:14:03.403Z,16.87
2017-08-18T02:16:31.123Z,16.86
2017-08-18T02:18:58.875Z,16.71
2017-08-18T02:21:26.632Z,16.67
2017-08-18T02:23:54.389Z,16.67
2017-08-18T02:26:22.105Z,16.52
2017-08-18T02:28:49.810Z,16.50
2017-08-18T02:31:17.518Z,16.57
2017-08-18T02:33:45.363Z,16.61
2017-08-18T02:36:13.136Z,16.61
2017-08-18T02:38:40.881Z,16.62
2017-08-18T02:41:08.565Z,16.53
2017-08-18T02:43:36.314Z,16.47
2017-08-18T02:46:04.059Z,16.58
2017-08-18T02:48:31.817Z,16.43
2017-08-18T02:50:59.529Z,16.32
2017-08-18T02:53:27.241Z,16.35
2017-08-18T02:55:55.033Z,16.48
2017-08-18T02:58:22.749Z,16.43
2017-08-18T03:00:50.438Z,16.40
2017-08-18T03:03:18.169Z,16.37
2017-08-18T03:05:45.847Z,16.33
2017-08-18T03:08:13.567Z,16.45
2017-08-18T03:10:41.349Z,16.42
2017-08-18T03:13:09.081Z,16.28
2017-08-18T03:15:36.793Z,16.14
2017-08-18T03:18:04.510Z,16.06
2017-08-18T03:20:32.538Z,16.21
2017-08-18T03:23:00.358Z,16.35
2017-08-18T03:25:28.044Z,16.24
2017-08-18T03:27:55.825Z,16.16
2017-08-18T03:30:23.541Z,16.24
2017-08-18T03:32:51.248Z,16.21
2017-08-18T03:35:18.968Z,16.24
2017-08-18T03:37:46.749Z,16.15
2017-08-18T03:40:14.442Z,16.16
2017-08-18T03:42:42.164Z,16.15
2017-08-18T03:45:09.944Z,16.16
2017-08-18T03:47:37.676Z,16.05
2017-08-18T03:50:05.413Z,16.12
2017-08-18T03:52:33.391Z,16.06
2017-08-18T03:55:01.113Z,16.11
2017-08-18T03:57:28.855Z,16.03
2017-08-18T03:59:56.558Z,16.07
2017-08-18T04:02:24.501Z,16.08
2017-08-18T04:04:52.235Z,16.05
2017-08-18T04:07:20.013Z,16.04
2017-08-18T04:09:47.692Z,16.02
2017-08-18T04:12:15.430Z,15.98
2017-08-18T04:14:43.125Z,15.98
2017-08-18T04:17:10.866Z,15.94
2017-08-18T04:19:38.706Z,16.01
2017-08-18T04:22:06.391Z,16.02
2017-08-18T04:24:34.141Z,15.98
2017-08-18T04:27:01.887Z,15.92
2017-08-18T04:29:29.595Z,16.08
2017-08-18T04:31:57.369Z,16.03
2017-08-18T04:34:25.121Z,15.95
2017-08-18T04:36:53.954Z,15.99
2017-08-18T04:39:21.615Z,15.96
2017-08-18T04:41:49.337Z,16.06
2017-08-18T04:44:17.067Z,16.12
2017-08-18T04:46:44.761Z,16.12
2017-08-18T04:49:12.461Z,16.10
2017-08-18T04:51:40.212Z,16.16
2017-08-18T04:54:07.934Z,16.20
2017-08-18T04:56:35.653Z,16.21
2017-08-18T04:59:03.433Z,16.08
2017-08-18T05:01:31.153Z,16.12
2017-08-18T05:03:58.901Z,16.19
2017-08-18T05:06:26.678Z,16.28
2017-08-18T05:08:54.428Z,16.38
2017-08-18T05:11:22.130Z,16.42
2017-08-18T05:13:50.097Z,16.48
2017-08-18T05:16:17.822Z,16.59
2017-08-18T05:18:45.584Z,16.79
2017-08-18T05:21:13.330Z,16.87
2017-08-18T05:23:41.123Z,16.91
2017-08-18T05:26:08.850Z,17.15
2017-08-18T05:28:36.597Z,17.26
2017-08-18T05:31:04.321Z,17.45
2017-08-18T05:33:32.138Z,17.60
2017-08-18T05:35:59.939Z,17.93
2017-08-18T05:38:27.652Z,18.26
2017-08-18T05:40:55.390Z,18.32
2017-08-18T05:43:23.144Z,18.24
2017-08-18T05:45:50.865Z,18.45
2017-08-18T05:48:18.635Z,18.76
2017-08-18T05:50:46.417Z,19.17
2017-08-18T05:53:14.174Z,19.33
2017-08-18T05:55:41.936Z,19.63
2017-08-18T05:58:09.909Z,19.79
2017-08-18T06:00:37.727Z,19.57
2017-08-18T06:03:05.441Z,19.52
2017-08-18T06:05:33.141Z,19.77
2017-08-18T06:08:00.919Z,19.75
2017-08-18T06:10:28.696Z,20.21
2017-08-18T06:12:56.483Z,20.43
2017-08-18T06:15:24.976Z,20.43
2017-08-18T06:17:52.740Z,20.72
2017-08-18T06:20:20.536Z,20.74
2017-08-18T06:22:48.297Z,20.59
2017-08-18T06:25:16.083Z,20.89
2017-08-18T06:27:43.843Z,20.95
2017-08-18T06:30:11.692Z,21.14
2017-08-18T06:32:39.469Z,20.55
2017-08-18T06:35:07.254Z,20.49
2017-08-18T06:37:35.028Z,20.55
2017-08-18T06:40:02.729Z,20.78
2017-08-18T06:42:30.441Z,21.27
2017-08-18T06:44:58.183Z,21.33
2017-08-18T06:47:25.903Z,21.22
2017-08-18T06:49:53.655Z,21.41
2017-08-18T06:52:21.382Z,21.59
2017-08-18T06:54:49.145Z,21.51
2017-08-18T06:57:16.893Z,21.80
2017-08-18T06:59:44.632Z,22.04
2017-08-18T07:02:12.405Z,21.89
2017-08-18T07:04:40.203Z,21.56
2017-08-18T07:07:08.006Z,22.11
2017-08-18T07:09:35.747Z,22.14
2017-08-18T07:12:03.564Z,22.19
2017-08-18T07:14:31.326Z,22.57
2017-08-18T07:16:59.050Z,22.69
2017-08-18T07:19:26.819Z,22.70
2017-08-18T07:21:54.554Z,23.09
2017-08-18T07:24:22.321Z,22.84
2017-08-18T07:26:50.145Z,23.12
2017-08-18T07:29:17.962Z,23.07
2017-08-18T07:31:45.885Z,23.13
2017-08-18T07:34:13.610Z,23.47
2017-08-18T07:36:41.392Z,23.60
2017-08-18T07:39:09.161Z,23.00
2017-08-18T07:41:36.859Z,23.33
2017-08-18T07:44:04.600Z,23.48
2017-08-18T07:46:32.321Z,23.23
2017-08-18T07:49:00.112Z,23.39
2017-08-18T07:51:27.826Z,23.31
2017-08-18T07:53:55.589Z,23.32
2017-08-18T07:56:23.305Z,23.34
2017-08-18T07:58:52.281Z,23.59
2017-08-18T08:01:20.051Z,24.15
2017-08-18T08:03:47.756Z,24.44
2017-08-18T08:06:15.472Z,24.76
2017-08-18T08:08:43.221Z,24.67
2017-08-18T08:11:10.916Z,24.97
2017-08-18T08:13:38.690Z,24.54
2017-08-18T08:16:06.482Z,23.90
2017-08-18T08:18:34.237Z,23.68
2017-08-18T08:21:01.992Z,24.54
2017-08-18T08:23:29.826Z,24.97
2017-08-18T08:25:57.636Z,25.10
2017-08-18T08:28:25.419Z,25.06
2017-08-18T08:30:53.205Z,25.29
2017-08-18T08:33:21.012Z,25.21
2017-08-18T08:35:49.854Z,25.60
2017-08-18T08:38:18.662Z,25.56
2017-08-18T08:40:46.477Z,25.33
2017-08-18T08:43:14.289Z,25.79
2017-08-18T08:45:42.006Z,25.91
2017-08-18T08:48:09.721Z,26.02
2017-08-18T08:50:37.516Z,25.83
2017-08-18T08:53:05.298Z,26.41
2017-08-18T08:55:33.102Z,26.14
2017-08-18T08:58:00.861Z,26.33
2017-08-18T09:00:28.643Z,26.53
2017-08-18T09:02:56.338Z,25.96
2017-08-18T09:05:24.118Z,26.44
2017-08-18T09:07:51.821Z,26.28
2017-08-18T09:10:19.530Z,25.94
2017-08-18T09:12:47.324Z,26.68
2017-08-18T09:15:15.077Z,26.76
2017-08-18T09:17:42.848Z,26.85
2017-08-18T09:20:10.670Z,27.17
2017-08-18T09:22:38.429Z,27.58
2017-08-18T09:25:06.222Z,27.54
2017-08-18T09:27:33.928Z,27.75
2017-08-18T09:30:01.704Z,27.94
2017-08-18T09:32:29.459Z,27.23
2017-08-18T09:34:57.149Z,27.68
2017-08-18T09:37:24.868Z,27.50
2017-08-18T09:39:52.667Z,27.15
2017-08-18T09:42:20.382Z,27.31
2017-08-18T09:44:48.092Z,27.83
2017-08-18T09:47:15.916Z,28.01
2017-08-18T09:49:55.523Z,27.80
2017-08-18T09:52:38.934Z,27.23
2017-08-18T09:55:18.529Z,27.52
2017-08-18T09:57:58.005Z,27.72
2017-08-18T10:00:25.779Z,28.13
2017-08-18T10:02:53.485Z,28.21
2017-08-18T10:05:21.310Z,27.64
2017-08-18T10:07:49.045Z,27.40
2017-08-18T10:10:16.770Z,28.16
2017-08-18T10:12:44.539Z,28.72
2017-08-18T10:15:12.321Z,28.76
2017-08-18T10:17:40.072Z,28.76
2017-08-18T10:20:07.892Z,28.58
2017-08-18T10:22:35.655Z,28.55
2017-08-18T10:25:03.474Z,28.24
2017-08-18T10:27:31.267Z,28.84
2017-08-18T10:29:59.039Z,28.72
2017-08-18T10:32:26.763Z,29.08
2017-08-18T10:34:54.548Z,29.19
2017-08-18T10:37:22.327Z,29.09
2017-08-18T10:39:50.075Z,29.05
2017-08-18T10:42:17.900Z,29.37
2017-08-18T10:44:45.665Z,29.52
2017-08-18T10:47:13.407Z,29.53
2017-08-18T10:49:41.180Z,29.74
2017-08-18T10:52:08.959Z,29.67
2017-08-18T10:54:36.825Z,29.61
2017-08-18T10:57:04.665Z,29.56
2017-08-18T10:59:32.466Z,30.04
2017-08-18T11:02:00.241Z,30.21
2017-08-18T11:04:28.014Z,30.24
2017-08-18T11:06:55.772Z,30.60
2017-08-18T11:09:23.515Z,30.78
2017-08-18T11:11:51.329Z,30.69
2017-08-18T11:14:19.140Z,30.35
2017-08-18T11:16:46.944Z,30.01
2017-08-18T11:19:14.739Z,29.71
2017-08-18T11:21:42.461Z,30.09
2017-08-18T11:24:10.247Z,30.00
2017-08-18T11:26:38.050Z,30.03
2017-08-18T11:29:06.363Z,30.19
2017-08-18T11:31:34.165Z,30.09
2017-08-18T11:34:02.494Z,30.30
2017-08-18T11:36:32.106Z,29.77
2017-08-18T11:38:59.872Z,30.53
2017-08-18T11:41:27.616Z,30.75
2017-08-18T11:43:55.378Z,30.44
2017-08-18T11:46:23.112Z,30.44
2017-08-18T11:48:51.013Z,30.48
2017-08-18T11:51:18.927Z,30.65
2017-08-18T11:53:46.680Z,30.86
2017-08-18T11:56:14.755Z,30.65
2017-08-18T11:58:43.679Z,31.14
2017-08-18T12:01:11.451Z,31.00
2017-08-18T12:03:39.239Z,31.01
2017-08-18T12:06:07.844Z,31.22
2017-08-18T12:08:35.690Z,31.57
2017-08-18T12:11:03.450Z,31.16
2017-08-18T12:13:31.235Z,31.02
2017-08-18T12:15:59.012Z,30.65
2017-08-18T12:18:26.770Z,30.71
2017-08-18T12:20:54.545Z,31.01
2017-08-18T12:23:22.293Z,31.11
2017-08-18T12:25:50.134Z,31.59
2017-08-18T12:28:17.913Z,31.51
2017-08-18T12:30:45.702Z,31.63
2017-08-18T12:33:13.452Z,32.01
2017-08-18T12:35:41.223Z,32.00
2017-08-18T12:38:09.037Z,31.65
2017-08-18T12:40:36.882Z,31.79
2017-08-18T12:43:04.721Z,31.81
2017-08-18T12:45:32.526Z,32.13
2017-08-18T12:48:00.242Z,32.47
2017-08-18T12:50:27.984Z,32.51
2017-08-18T12:52:56.094Z,32.68
2017-08-18T12:55:23.937Z,32.75
2017-08-18T12:57:51.650Z,32.64
2017-08-18T13:00:19.456Z,32.37
2017-08-18T13:02:47.286Z,32.55
2017-08-18T13:05:15.010Z,32.65
2017-08-18T13:07:42.758Z,32.83
2017-08-18T13:10:10.463Z,32.93
2017-08-18T13:12:38.161Z,32.81
2017-08-18T13:15:05.935Z,32.65
2017-08-18T13:17:33.712Z,32.73
2017-08-18T13:20:01.515Z,32.76
2017-08-18T13:22:30.263Z,32.95
2017-08-18T13:24:59.202Z,32.86
2017-08-18T13:27:26.982Z,32.58
2017-08-18T13:29:54.794Z,32.43
2017-08-18T13:32:22.644Z,32.23
2017-08-18T13:34:51.544Z,31.73
2017-08-18T13:37:20.397Z,32.12
2017-08-18T13:39:48.144Z,32.41
2017-08-18T13:42:16.060Z,32.43
2017-08-18T13:44:43.838Z,32.10
2017-08-18T13:47:11.612Z,31.75
2017-08-18T13:49:39.439Z,31.37
2017-08-18T13:52:07.945Z,31.17
2017-08-18T13:54:35.762Z,31.32
2017-08-18T13:57:04.806Z,31.23
2017-08-18T13:59:32.612Z,31.08
2017-08-18T14:02:01.545Z,30.83
2017-08-18T14:04:29.344Z,30.85
2017-08-18T14:06:58.327Z,30.50
2017-08-18T14:09:26.083Z,30.76
2017-08-18T14:11:54.012Z,30.80
2017-08-18T14:14:21.809Z,30.63
2017-08-18T14:16:49.575Z,30.74
2017-08-18T14:19:17.351Z,31.05
2017-08-18T14:21:45.148Z,31.42
2017-08-18T14:24:12.898Z,31.11
2017-08-18T14:26:46.204Z,31.32
2017-08-18T14:29:13.953Z,31.39
2017-08-18T14:31:41.802Z,31.73
2017-08-18T14:34:09.528Z,31.79
2017-08-18T14:36:37.314Z,31.49
2017-08-18T14:39:05.423Z,31.06
2017-08-18T14:41:33.140Z,30.95
2017-08-18T14:44:00.911Z,31.01
2017-08-18T14:46:28.679Z,30.87
2017-08-18T14:48:56.387Z,30.48
2017-08-18T14:51:24.171Z,30.85
2017-08-18T14:53:51.877Z,31.23
2017-08-18T14:56:19.639Z,31.49
2017-08-18T14:58:47.384Z,31.47
2017-08-18T15:01:15.199Z,31.70
2017-08-18T15:03:42.958Z,31.53
2017-08-18T15:06:11.929Z,31.61
2017-08-18T15:08:39.675Z,31.58
2017-08-18T15:11:07.425Z,31.51
2017-08-18T15:13:35.181Z,31.41
2017-08-18T15:16:02.883Z,31.36
2017-08-18T15:18:31.491Z,31.55
2017-08-18T15:20:59.277Z,31.39
2017-08-18T15:23:27.087Z,31.63
2017-08-18T15:25:54.813Z,31.45
2017-08-18T15:28:22.497Z,31.28
2017-08-18T15:30:50.307Z,31.16
2017-08-18T15:33:18.074Z,31.22
2017-08-18T15:35:45.807Z,31.05
2017-08-18T15:38:13.518Z,30.70
2017-08-18T15:40:41.307Z,30.59
2017-08-18T15:43:09.118Z,30.60
2017-08-18T15:45:36.838Z,30.50
2017-08-18T15:48:04.705Z,30.44
2017-08-18T15:50:32.441Z,30.05
2017-08-18T15:53:00.180Z,29.79
2017-08-18T15:55:27.971Z,29.66
2017-08-18T15:57:55.706Z,29.36
2017-08-18T16:00:23.511Z,29.13
2017-08-18T16:02:51.251Z,29.13
2017-08-18T16:05:19.023Z,28.88
2017-08-18T16:07:46.760Z,28.64
2017-08-18T16:10:14.486Z,28.50
2017-08-18T16:12:42.194Z,28.42
2017-08-18T16:15:10.008Z,28.48
2017-08-18T16:17:37.772Z,28.35
2017-08-18T16:20:05.593Z,28.01
2017-08-18T16:22:33.318Z,27.78
2017-08-18T16:25:01.101Z,27.80
2017-08-18T16:27:28.783Z,27.72
2017-08-18T16:29:56.560Z,27.53
2017-08-18T16:32:24.356Z,27.56
2017-08-18T16:34:52.095Z,27.46
2017-08-18T16:37:19.832Z,27.34
2017-08-18T16:39:47.632Z,27.41
2017-08-18T16:42:15.390Z,27.38
2017-08-18T16:44:43.173Z,27.40
2017-08-18T16:47:11.010Z,27.23
2017-08-18T16:49:38.746Z,27.10
2017-08-18T16:52:06.565Z,27.08
2017-08-18T16:54:34.358Z,27.01
2017-08-18T16:57:02.173Z,26.94
2017-08-18T16:59:29.871Z,26.84
2017-08-18T17:01:57.610Z,26.74
2017-08-18T17:04:25.344Z,26.75
2017-08-18T17:06:53.158Z,26.58
2017-08-18T17:09:20.931Z,26.51
2017-08-18T17:11:48.767Z,26.41
2017-08-18T17:14:16.558Z,26.46
2017-08-18T17:16:44.332Z,26.43
2017-08-18T17:19:12.265Z,26.24
2017-08-18T17:21:39.989Z,26.14
2017-08-18T17:24:07.723Z,26.15
2017-08-18T17:26:35.511Z,26.08
2017-08-18T17:29:03.275Z,26.02
2017-08-18T17:31:31.055Z,25.75
2017-08-18T17:33:58.775Z,25.76
2017-08-18T17:36:26.583Z,25.73
2017-08-18T17:38:55.454Z,25.63
2017-08-18T17:41:23.254Z,25.69
2017-08-18T17:43:51.026Z,25.63
2017-08-18T17:46:19.232Z,25.30
2017-08-18T17:48:46.976Z,25.31
2017-08-18T17:51:14.820Z,25.27
2017-08-18T17:53:42.598Z,25.28
2017-08-18T17:56:10.434Z,25.13
2017-08-18T17:58:38.155Z,25.15
2017-08-18T18:01:06.280Z,25.17
2017-08-18T18:03:35.049Z,25.16
2017-08-18T18:06:02.784Z,24.90
2017-08-18T18:08:30.584Z,24.94
2017-08-18T18:10:59.369Z,24.93
2017-08-18T18:13:27.187Z,24.90
2017-08-18T18:15:54.995Z,24.78
2017-08-18T18:18:22.739Z,24.63
2017-08-18T18:20:50.478Z,24.60
2017-08-18T18:23:18.330Z,24.63
2017-08-18T18:25:46.219Z,24.56
2017-08-18T18:28:13.951Z,24.57
2017-08-18T18:30:42.074Z,24.58
2017-08-18T18:33:10.801Z,24.59
2017-08-18T18:35:38.838Z,24.47
2017-08-18T18:38:07.803Z,24.32
2017-08-18T18:40:35.604Z,24.28
2017-08-18T18:43:03.450Z,24.19
2017-08-18T18:45:32.289Z,24.19
2017-08-18T18:48:01.463Z,24.21
2017-08-18T18:50:29.307Z,24.10
2017-08-18T18:52:57.299Z,24.02
2017-08-18T18:55:25.163Z,24.05
2017-08-18T18:57:53.004Z,24.00
2017-08-18T19:00:20.822Z,23.90
2017-08-18T19:02:48.682Z,23.90
2017-08-18T19:05:17.162Z,23.95
2017-08-18T19:07:45.029Z,23.80
2017-08-18T19:10:13.906Z,23.81
2017-08-18T19:12:42.252Z,23.81
2017-08-18T19:15:10.039Z,23.60
2017-08-18T19:17:37.917Z,23.42
2017-08-18T19:20:05.737Z,23.41
2017-08-18T19:22:33.622Z,23.30
2017-08-18T19:25:01.394Z,23.24
2017-08-18T19:27:29.186Z,23.21
2017-08-18T19:29:57.012Z,23.19
2017-08-18T19:32:24.963Z,23.18
2017-08-18T19:34:52.737Z,23.25
2017-08-18T19:37:20.492Z,23.39
2017-08-18T19:39:48.319Z,23.41
2017-08-18T19:42:16.090Z,23.39
2017-08-18T19:44:43.846Z,23.24
2017-08-18T19:47:11.818Z,22.94
2017-08-18T19:49:39.595Z,22.86
2017-08-18T19:52:07.377Z,22.82
2017-08-18T19:54:35.183Z,22.71
2017-08-18T19:57:02.975Z,22.75
2017-08-18T19:59:31.953Z,22.81
2017-08-18T20:01:59.699Z,22.77
2017-08-18T20:04:27.522Z,22.81
2017-08-18T20:06:55.325Z,22.87
2017-08-18T20:09:23.192Z,22.68
2017-08-18T20:11:51.706Z,22.72
2017-08-18T20:14:19.495Z,22.66
2017-08-18T20:16:48.357Z,22.52
2017-08-18T20:19:16.248Z,22.40
2017-08-18T20:21:44.049Z,22.38
2017-08-18T20:24:11.819Z,22.25
2017-08-18T20:26:39.692Z,22.33
2017-08-18T20:29:07.543Z,22.31
2017-08-18T20:31:35.389Z,22.36
2017-08-18T20:34:03.229Z,22.38
2017-08-18T20:36:30.965Z,22.40
2017-08-18T20:38:58.752Z,22.40
2017-08-18T20:41:27.256Z,22.25
2017-08-18T20:43:55.000Z,22.27
2017-08-18T20:46:22.757Z,22.19
2017-08-18T20:48:50.555Z,21.97
2017-08-18T20:51:18.259Z,21.95
2017-08-18T20:53:46.031Z,21.98
2017-08-18T20:56:13.931Z,21.92
2017-08-18T20:58:41.684Z,21.90
2017-08-18T21:01:09.461Z,21.99
2017-08-18T21:03:37.179Z,22.00
2017-08-18T21:06:04.966Z,21.94
2017-08-18T21:08:32.732Z,21.86
2017-08-18T21:11:00.456Z,21.78
2017-08-18T21:13:28.263Z,21.70
2017-08-18T21:15:56.067Z,21.41
2017-08-18T21:18:23.883Z,21.61
2017-08-18T21:20:52.000Z,21.59
2017-08-18T21:23:19.934Z,21.40
2017-08-18T21:25:49.123Z,21.33
2017-08-18T21:28:17.404Z,21.33
2017-08-18T21:30:45.151Z,21.22
2017-08-18T21:33:13.283Z,21.20
2017-08-18T21:35:41.048Z,21.18
2017-08-18T21:38:08.863Z,21.16
2017-08-18T21:40:37.579Z,21.27
2017-08-18T21:43:05.320Z,21.22
2017-08-18T21:45:33.143Z,21.18
2017-08-18T21:48:00.942Z,21.17
2017-08-18T21:50:28.718Z,21.24
2017-08-18T21:52:56.790Z,21.46
2017-08-18T21:55:24.628Z,21.90
2017-08-18T21:57:52.465Z,22.05
2017-08-18T22:00:20.189Z,22.35
2017-08-18T22:02:48.021Z,22.86
2017-08-18T22:05:15.781Z,23.06
2017-08-18T22:07:43.552Z,23.07
2017-08-18T22:10:11.291Z,22.91
2017-08-18T22:12:39.000Z,22.77
2017-08-18T22:15:06.789Z,22.59
2017-08-18T22:17:34.599Z,22.51
2017-08-18T22:20:02.327Z,22.69
2017-08-18T22:22:30.064Z,22.91
2017-08-18T22:24:57.816Z,22.80
2017-08-18T22:27:25.567Z,22.81
2017-08-18T22:30:10.158Z,22.84
2017-08-18T22:32:38.143Z,22.85
2017-08-18T22:35:06.014Z,22.70
2017-08-18T22:37:33.780Z,22.59
2017-08-18T22:40:01.543Z,22.68
2017-08-18T22:42:29.300Z,22.67
2017-08-18T22:44:57.197Z,22.68
2017-08-18T22:47:25.229Z,22.71
2017-08-18T22:49:53.120Z,22.68
2017-08-18T22:52:20.924Z,22.66
2017-08-18T22:54:48.775Z,22.64
2017-08-18T22:57:16.481Z,22.54
2017-08-18T22:59:44.230Z,22.65
2017-08-18T23:02:11.955Z,22.68
2017-08-18T23:04:39.748Z,22.65
2017-08-18T23:07:07.500Z,22.67
2017-08-18T23:09:35.259Z,22.65
2017-08-18T23:12:02.984Z,22.65
2017-08-18T23:14:30.760Z,22.61
2017-08-18T23:16:58.532Z,22.65
2017-08-18T23:19:26.231Z,22.61
2017-08-18T23:21:53.947Z,22.60
2017-08-18T23:24:21.743Z,22.49
2017-08-18T23:26:49.465Z,22.35
2017-08-18T23:29:17.156Z,22.27
2017-08-18T23:31:44.873Z,22.16
2017-08-18T23:34:12.558Z,22.03
2017-08-18T23:36:40.265Z,22.03
2017-08-18T23:39:07.998Z,21.94
2017-08-18T23:41:36.798Z,21.87
2017-08-18T23:44:04.500Z,22.00
2017-08-18T23:46:32.260Z,22.04
2017-08-18T23:49:00.054Z,21.98
2017-08-18T23:51:27.828Z,21.96
2017-08-18T23:53:55.528Z,22.00
2017-08-18T23:56:23.227Z,22.04
2017-08-18T23:58:51.027Z,22.02
